createdAt,value
2022-11-27T00:02:42.815Z,102484.16
2022-11-27T00:07:40.843Z,102493.81
2022-11-27T00:12:38.816Z,102484.78
2022-11-27T00:17:40.945Z,102477.88
2022-11-27T00:22:39.009Z,102478.00
2022-11-27T00:27:38.741Z,102490.41
2022-11-27T00:32:38.456Z,102500.16
2022-11-27T00:37:37.513Z,102499.81
2022-11-27T00:42:35.536Z,102507.50
2022-11-27T00:47:33.454Z,102503.84
2022-11-27T00:52:32.851Z,102502.66
2022-11-27T00:57:30.720Z,102499.91
2022-11-27T01:02:28.664Z,102509.66
2022-11-27T01:07:27.836Z,102504.59
2022-11-27T01:12:27.072Z,102517.22
2022-11-27T01:17:25.002Z,102508.22
2022-11-27T01:22:22.814Z,102519.75
2022-11-27T01:27:20.801Z,102521.63
2022-11-27T01:32:20.024Z,102516.50
2022-11-27T01:37:17.963Z,102523.28
2022-11-27T01:42:16.046Z,102525.72
2022-11-27T01:47:15.789Z,102517.41
2022-11-27T01:52:18.160Z,102507.59
2022-11-27T01:57:19.309Z,102509.00
2022-11-27T02:02:17.189Z,102507.19
2022-11-27T02:07:16.559Z,102513.22
2022-11-27T02:12:17.807Z,102504.94
2022-11-27T02:17:19.656Z,102507.63
2022-11-27T02:22:26.464Z,102509.59
2022-11-27T02:27:51.571Z,102515.69
2022-11-27T02:32:53.504Z,102510.69
2022-11-27T02:37:54.589Z,102509.00
2022-11-27T02:42:54.895Z,102504.81
2022-11-27T02:47:55.231Z,102501.53
2022-11-27T02:52:56.061Z,102500.56
2022-11-27T02:57:56.123Z,102497.06
2022-11-27T03:02:58.328Z,102497.84
2022-11-27T03:08:01.012Z,102511.38
2022-11-27T03:13:00.005Z,102509.84
2022-11-27T03:18:02.628Z,102507.78
2022-11-27T03:23:00.731Z,102508.81
2022-11-27T03:28:01.168Z,102503.53
2022-11-27T03:33:00.596Z,102512.19
2022-11-27T03:37:58.620Z,102511.50
2022-11-27T03:42:59.848Z,102520.19
2022-11-27T03:48:05.240Z,102521.41
2022-11-27T03:53:09.532Z,102528.88
2022-11-27T03:58:09.642Z,102521.44
2022-11-27T04:03:10.401Z,102523.81
2022-11-27T04:08:08.450Z,102530.00
2022-11-27T04:13:06.462Z,102526.31
2022-11-27T04:18:04.587Z,102526.88
2022-11-27T04:23:03.781Z,102529.38
2022-11-27T04:28:01.647Z,102504.28
2022-11-27T04:32:59.748Z,102532.03
2022-11-27T04:37:57.837Z,102529.66
2022-11-27T04:42:57.164Z,102529.06
2022-11-27T04:47:55.066Z,102524.06
2022-11-27T04:52:53.013Z,102531.53
2022-11-27T04:57:50.855Z,102522.97
2022-11-27T05:02:50.143Z,102523.22
2022-11-27T05:07:48.308Z,102527.88
2022-11-27T05:12:46.244Z,102528.28
2022-11-27T05:17:44.107Z,102522.44
2022-11-27T05:22:44.516Z,102529.31
2022-11-27T05:27:42.465Z,102530.13
2022-11-27T05:32:40.504Z,102534.63
2022-11-27T05:37:38.358Z,102526.78
2022-11-27T05:42:37.584Z,102525.28
2022-11-27T05:47:35.475Z,102531.41
2022-11-27T05:52:33.316Z,102540.81
2022-11-27T05:57:31.999Z,102534.97
2022-11-27T06:02:31.305Z,102538.50
2022-11-27T06:07:29.277Z,102542.88
2022-11-27T06:12:27.326Z,102556.53
2022-11-27T06:17:25.250Z,102555.00
2022-11-27T06:22:24.569Z,102565.41
2022-11-27T06:27:22.657Z,102570.56
2022-11-27T06:32:21.023Z,102568.78
2022-11-27T06:37:18.976Z,102569.78
2022-11-27T06:42:18.444Z,102565.63
2022-11-27T06:47:16.440Z,102569.94
2022-11-27T06:52:14.523Z,102563.00
2022-11-27T06:57:12.607Z,102562.25
2022-11-27T07:02:14.760Z,102557.09
2022-11-27T07:07:12.792Z,102560.53
2022-11-27T07:12:10.839Z,102543.38
2022-11-27T07:17:08.701Z,102555.44
2022-11-27T07:22:07.916Z,102553.72
2022-11-27T07:27:06.043Z,102550.41
2022-11-27T07:32:03.998Z,102553.81
2022-11-27T07:37:02.075Z,102552.09
2022-11-27T07:42:23.190Z,102560.72
2022-11-27T07:47:20.193Z,102564.25
2022-11-27T07:52:18.318Z,102557.31
2022-11-27T07:57:18.273Z,102563.38
2022-11-27T08:02:18.614Z,102561.63
2022-11-27T08:07:16.786Z,102566.84
2022-11-27T08:12:14.933Z,102567.72
2022-11-27T08:17:15.103Z,102572.00
2022-11-27T08:22:13.545Z,102575.56
2022-11-27T08:27:11.761Z,102581.56
2022-11-27T08:32:12.113Z,102579.03
2022-11-27T08:37:11.559Z,102581.63
2022-11-27T08:42:10.831Z,102577.31
2022-11-27T08:47:08.836Z,102580.78
2022-11-27T08:52:06.789Z,102586.00
2022-11-27T08:57:06.621Z,102590.22
2022-11-27T09:02:07.409Z,102583.41
2022-11-27T09:07:05.630Z,102581.69
2022-11-27T09:12:04.154Z,102573.91
2022-11-27T09:17:04.321Z,102574.75
2022-11-27T09:22:03.168Z,102557.53
2022-11-27T09:27:12.196Z,102559.25
2022-11-27T09:32:13.055Z,102551.47
2022-11-27T09:37:16.577Z,102548.88
2022-11-27T09:42:19.539Z,102536.81
2022-11-27T09:47:21.806Z,102530.75
2022-11-27T09:52:24.123Z,102540.22
2022-11-27T09:57:26.983Z,102539.38
2022-11-27T10:02:29.060Z,102535.03
2022-11-27T10:07:35.488Z,102536.78
2022-11-27T10:12:41.608Z,102526.38
2022-11-27T10:17:44.946Z,102521.16
2022-11-27T10:22:48.487Z,102516.91
2022-11-27T10:28:02.373Z,102512.59
2022-11-27T10:33:04.647Z,102500.53
2022-11-27T10:38:07.035Z,102504.84
2022-11-27T10:43:11.514Z,102491.81
2022-11-27T10:48:13.271Z,102489.13
2022-11-27T10:53:15.957Z,102478.69
2022-11-27T10:58:18.339Z,102483.75
2022-11-27T11:03:19.211Z,102481.09
2022-11-27T11:08:20.266Z,102482.06
2022-11-27T11:13:22.772Z,102473.28
2022-11-27T11:18:23.487Z,102466.34
2022-11-27T11:23:23.313Z,102455.28
2022-11-27T11:28:21.555Z,102454.47
2022-11-27T11:33:21.928Z,102444.91
2022-11-27T11:38:33.549Z,102445.00
2022-11-27T11:43:33.885Z,102438.88
2022-11-27T11:48:34.210Z,102444.91
2022-11-27T11:53:37.911Z,102434.41
2022-11-27T11:58:41.901Z,102435.25
2022-11-27T12:03:47.222Z,102423.09
2022-11-27T12:08:55.645Z,102422.28
2022-11-27T12:14:01.520Z,102417.13
2022-11-27T12:19:07.771Z,102418.00
2022-11-27T12:24:30.250Z,102411.94
2022-11-27T12:29:51.003Z,102403.22
2022-11-27T12:34:58.163Z,102399.75
2022-11-27T12:40:09.960Z,102395.47
2022-11-27T12:45:17.098Z,102392.06
2022-11-27T12:50:20.411Z,102391.16
2022-11-27T12:55:22.541Z,102385.97
2022-11-27T13:00:21.927Z,102385.97
2022-11-27T13:05:22.889Z,102393.75
2022-11-27T13:10:25.667Z,102387.72
2022-11-27T13:15:26.553Z,102387.72
2022-11-27T13:20:28.402Z,102388.59
2022-11-27T13:25:28.014Z,102386.91
2022-11-27T13:30:27.286Z,102388.59
2022-11-27T13:35:29.002Z,102386.06
2022-11-27T13:40:30.890Z,102385.22
2022-11-27T13:45:30.032Z,102389.53
2022-11-27T13:50:31.279Z,102382.66
2022-11-27T13:55:32.085Z,102390.41
2022-11-27T14:00:34.602Z,102388.75
2022-11-27T14:05:37.139Z,102385.44
2022-11-27T14:10:36.571Z,102396.59
2022-11-27T14:15:36.614Z,102390.50
2022-11-27T14:20:38.645Z,102384.50
2022-11-27T14:25:38.469Z,102381.91
2022-11-27T14:30:37.275Z,102376.78
2022-11-27T14:35:35.209Z,102374.22
2022-11-27T14:40:33.035Z,102376.81
2022-11-27T14:45:36.031Z,102372.53
2022-11-27T14:50:40.400Z,102370.81
2022-11-27T14:55:38.394Z,102371.69
2022-11-27T15:00:37.959Z,102363.06
2022-11-27T15:05:38.715Z,102366.53
2022-11-27T15:10:40.460Z,102364.78
2022-11-27T15:15:43.108Z,102370.00
2022-11-27T15:20:41.837Z,102370.81
2022-11-27T15:25:41.025Z,102372.59
2022-11-27T15:30:46.616Z,102369.97
2022-11-27T15:35:46.943Z,102380.34
2022-11-27T15:40:57.283Z,102379.44
2022-11-27T15:45:57.686Z,102379.47
2022-11-27T15:50:55.745Z,102382.00
2022-11-27T15:55:53.569Z,102377.66
2022-11-27T16:00:51.386Z,102376.81
2022-11-27T16:05:53.866Z,102375.94
2022-11-27T16:10:51.711Z,102371.63
2022-11-27T16:15:49.565Z,102375.94
2022-11-27T16:20:48.044Z,102369.06
2022-11-27T16:25:47.614Z,102365.59
2022-11-27T16:30:45.895Z,102357.00
2022-11-27T16:35:43.740Z,102361.34
2022-11-27T16:40:41.956Z,102363.03
2022-11-27T16:45:41.223Z,102358.72
2022-11-27T16:50:40.741Z,102352.69
2022-11-27T16:55:39.694Z,102365.66
2022-11-27T17:00:37.773Z,102364.81
2022-11-27T17:05:40.126Z,102364.81
2022-11-27T17:10:38.471Z,102365.66
2022-11-27T17:15:40.870Z,102376.88
2022-11-27T17:20:41.646Z,102365.66
2022-11-27T17:25:43.836Z,102370.84
2022-11-27T17:30:42.043Z,102361.34
2022-11-27T17:35:42.437Z,102364.78
2022-11-27T17:40:40.763Z,102360.47
2022-11-27T17:45:41.757Z,102357.00
2022-11-27T17:50:40.371Z,102351.78
2022-11-27T17:55:39.872Z,102354.41
2022-11-27T18:00:42.647Z,102350.03
2022-11-27T18:05:41.147Z,102349.19
2022-11-27T18:10:40.455Z,102350.03
2022-11-27T18:15:38.697Z,102350.03
2022-11-27T18:20:36.846Z,102353.53
2022-11-27T18:25:34.890Z,102337.09
2022-11-27T18:30:39.309Z,102331.09
2022-11-27T18:35:42.272Z,102343.22
2022-11-27T18:40:42.271Z,102344.19
2022-11-27T18:45:42.204Z,102344.19
2022-11-27T18:50:40.284Z,102344.13
2022-11-27T18:55:38.535Z,102340.75
2022-11-27T19:00:36.912Z,102334.72
2022-11-27T19:05:37.867Z,102330.38
2022-11-27T19:10:35.874Z,102338.13
2022-11-27T19:15:34.196Z,102339.00
2022-11-27T19:20:33.535Z,102306.28
2022-11-27T19:25:37.417Z,102334.69
2022-11-27T19:30:36.864Z,102328.63
2022-11-27T19:35:38.428Z,102334.66
2022-11-27T19:40:38.959Z,102338.06
2022-11-27T19:45:37.837Z,102346.78
2022-11-27T19:50:41.597Z,102350.22
2022-11-27T19:55:41.835Z,102355.41
2022-11-27T20:00:40.279Z,102358.03
2022-11-27T20:05:39.234Z,102355.50
2022-11-27T20:10:37.065Z,102346.03
2022-11-27T20:15:37.383Z,102343.41
2022-11-27T20:20:35.917Z,102345.06
2022-11-27T20:25:34.990Z,102351.94
2022-11-27T20:30:34.714Z,102354.53
2022-11-27T20:35:41.939Z,102353.66
2022-11-27T20:40:49.297Z,102352.84
2022-11-27T20:45:47.661Z,102348.66
2022-11-27T20:50:51.367Z,102340.91
2022-11-27T20:55:49.920Z,102344.31
2022-11-27T21:00:50.402Z,102346.84
2022-11-27T21:05:52.232Z,102339.91
2022-11-27T21:11:00.059Z,102341.66
2022-11-27T21:15:58.449Z,102346.00
2022-11-27T21:20:57.847Z,102336.44
2022-11-27T21:25:55.726Z,102340.72
2022-11-27T21:30:55.641Z,102339.00
2022-11-27T21:35:57.162Z,102330.34
2022-11-27T21:40:58.738Z,102336.41
2022-11-27T21:45:56.698Z,102329.50
2022-11-27T21:51:02.944Z,102324.31
2022-11-27T21:56:04.702Z,102328.63
2022-11-27T22:01:02.965Z,102313.06
2022-11-27T22:06:07.205Z,102308.75
2022-11-27T22:11:07.152Z,102305.31
2022-11-27T22:16:09.619Z,102299.28
2022-11-27T22:21:12.013Z,102297.56
2022-11-27T22:26:11.784Z,102295.00
2022-11-27T22:31:10.921Z,102294.13
2022-11-27T22:36:16.355Z,102282.94
2022-11-27T22:41:15.124Z,102282.91
2022-11-27T22:46:14.958Z,102274.28
2022-11-27T22:51:15.296Z,102275.94
2022-11-27T22:56:13.508Z,102270.78
2022-11-27T23:01:15.745Z,102265.63
2022-11-27T23:06:16.379Z,102269.97
2022-11-27T23:11:16.212Z,102262.19
2022-11-27T23:16:15.314Z,102262.19
2022-11-27T23:21:18.508Z,102262.22
2022-11-27T23:26:19.439Z,102262.22
2022-11-27T23:31:32.035Z,102263.09
2022-11-27T23:36:32.707Z,102263.94
2022-11-27T23:41:30.594Z,102264.81
2022-11-27T23:46:29.339Z,102257.03
2022-11-27T23:51:31.317Z,102252.75
2022-11-27T23:56:31.434Z,102249.31
